Time;durP1;ratioP1;P1;durP2;ratioP2;P2;SDS_P1;SDS_P2;PMS_P1;PMS_P2;Temp;Humidity;BMP_temperature;BMP_pressure;BME280_temperature;BME280_humidity;BME280_pressure;Samples;Min_cycle;Max_cycle;Signal;HPM_P1;HPM_P2
2023/02/21 02:15:39;;;;;;;10.77;6.28;;;5.40;99.90;;;;;;466237;255;27671;-79
2023/02/21 02:17:40;;;;;;;10.57;6.75;;;5.20;99.90;;;;;;466183;255;27543;-79
2023/02/21 02:19:41;;;;;;;9.75;6.40;;;5.20;99.90;;;;;;465977;255;27718;-79
2023/02/21 02:21:42;;;;;;;8.75;5.62;;;5.10;99.90;;;;;;466147;255;28076;-80
2023/02/21 02:23:44;;;;;;;9.43;6.70;;;5.10;99.90;;;;;;466103;255;27982;-81
2023/02/21 02:25:45;;;;;;;11.98;7.05;;;5.10;99.90;;;;;;466209;254;27544;-82
2023/02/21 02:27:46;;;;;;;13.43;7.03;;;5.00;99.90;;;;;;466258;255;27546;-79
2023/02/21 02:29:47;;;;;;;13.20;6.90;;;5.00;99.90;;;;;;466303;255;27490;-81
2023/02/21 02:31:49;;;;;;;8.85;6.53;;;5.00;99.90;;;;;;466258;255;27589;-79
2023/02/21 02:33:50;;;;;;;12.48;8.02;;;5.00;99.90;;;;;;466353;255;27538;-79
2023/02/21 02:35:51;;;;;;;9.35;6.68;;;5.00;99.90;;;;;;466045;255;28050;-79
2023/02/21 02:37:52;;;;;;;13.75;8.65;;;5.10;99.90;;;;;;466207;255;28109;-78
2023/02/21 02:39:54;;;;;;;9.25;6.45;;;5.00;99.90;;;;;;466047;255;27647;-78
2023/02/21 02:41:55;;;;;;;12.43;7.22;;;5.10;99.90;;;;;;466246;255;27681;-80
2023/02/21 02:43:56;;;;;;;16.55;8.32;;;5.10;99.90;;;;;;466306;255;27458;-79
2023/02/21 02:45:57;;;;;;;11.35;7.93;;;5.10;99.90;;;;;;466348;255;27610;-82
2023/02/21 02:47:59;;;;;;;11.00;7.10;;;5.10;99.90;;;;;;466307;254;27671;-81
2023/02/21 02:50:00;;;;;;;10.25;7.05;;;5.10;99.90;;;;;;466314;255;27997;-79
2023/02/21 02:52:02;;;;;;;10.63;7.43;;;5.10;99.90;;;;;;466290;255;28129;-79
2023/02/21 02:54:02;;;;;;;10.98;7.45;;;5.20;99.90;;;;;;466321;255;27648;-80
2023/02/21 02:56:04;;;;;;;12.27;8.30;;;5.10;99.90;;;;;;466274;255;27708;-79
2023/02/21 02:58:05;;;;;;;11.20;7.50;;;5.10;99.90;;;;;;466370;254;27642;-82
2023/02/21 03:00:06;;;;;;;15.57;9.52;;;5.10;99.90;;;;;;466288;255;27459;-81
2023/02/21 03:02:08;;;;;;;9.70;6.72;;;5.10;99.90;;;;;;466223;255;28073;-80
2023/02/21 03:04:09;;;;;;;15.88;8.05;;;5.10;99.90;;;;;;466257;255;28001;-81
2023/02/21 03:06:10;;;;;;;17.73;8.52;;;5.10;99.90;;;;;;466305;255;27665;-81
2023/02/21 03:08:11;;;;;;;16.58;9.23;;;5.10;99.90;;;;;;466183;255;27590;-79
2023/02/21 03:10:13;;;;;;;14.87;9.57;;;5.10;99.90;;;;;;466274;254;27674;-80
2023/02/21 03:12:14;;;;;;;11.00;8.45;;;5.10;99.90;;;;;;466311;254;27581;-78
2023/02/21 03:14:15;;;;;;;13.27;8.32;;;5.10;99.90;;;;;;466336;255;27622;-80
2023/02/21 03:16:16;;;;;;;16.40;9.55;;;5.00;99.90;;;;;;466237;255;28052;-78
2023/02/21 03:18:18;;;;;;;13.73;8.02;;;5.00;99.90;;;;;;466238;255;27674;-81
2023/02/21 03:20:19;;;;;;;17.20;9.32;;;5.00;99.90;;;;;;466263;255;27624;-78
2023/02/21 03:22:20;;;;;;;10.13;7.90;;;5.00;99.90;;;;;;466202;255;27587;-80
2023/02/21 03:24:21;;;;;;;11.63;8.75;;;5.10;99.90;;;;;;466301;255;27621;-78
2023/02/21 03:26:23;;;;;;;15.05;10.05;;;5.00;99.90;;;;;;466215;255;28048;-77
2023/02/21 03:28:24;;;;;;;10.77;8.45;;;5.00;99.90;;;;;;466247;255;28149;-81
2023/02/21 03:30:25;;;;;;;14.30;9.45;;;5.00;99.90;;;;;;466307;255;27638;-80
2023/02/21 03:34:27;;;;;;;17.83;9.40;;;4.90;99.90;;;;;;466205;255;28066;-81
2023/02/21 03:36:28;;;;;;;14.90;9.60;;;4.80;99.90;;;;;;466139;255;27685;-80
2023/02/21 03:38:30;;;;;;;15.77;9.95;;;4.80;99.90;;;;;;466204;255;27998;-80
2023/02/21 03:40:31;;;;;;;14.70;9.32;;;4.70;99.90;;;;;;466160;255;28299;-81
2023/02/21 03:42:32;;;;;;;12.35;8.65;;;4.70;99.90;;;;;;465937;255;27593;-80
2023/02/21 03:44:33;;;;;;;14.80;10.43;;;4.70;99.90;;;;;;466239;255;27570;-78
2023/02/21 03:46:35;;;;;;;18.17;11.32;;;4.60;99.90;;;;;;466231;255;27593;-78
2023/02/21 03:48:36;;;;;;;20.90;12.35;;;4.60;99.90;;;;;;466217;255;27632;-78
2023/02/21 03:50:37;;;;;;;20.58;11.63;;;4.50;99.90;;;;;;466221;255;28038;-79
2023/02/21 03:52:38;;;;;;;24.60;12.02;;;4.50;99.90;;;;;;466167;255;28163;-77
2023/02/21 03:54:40;;;;;;;17.37;10.68;;;4.40;99.90;;;;;;466228;255;27561;-78
2023/02/21 03:56:41;;;;;;;13.82;10.32;;;4.40;99.90;;;;;;466343;253;27611;-78
2023/02/21 03:58:42;;;;;;;13.55;8.85;;;4.40;99.90;;;;;;466087;255;27646;-78
2023/02/21 04:00:44;;;;;;;16.05;9.90;;;4.40;99.90;;;;;;466077;255;27583;-78
2023/02/21 04:02:45;;;;;;;11.50;7.97;;;4.50;99.90;;;;;;465770;255;28069;-80
2023/02/21 04:04:47;;;;;;;19.58;11.02;;;4.50;99.90;;;;;;465814;255;28074;-81
2023/02/21 04:06:47;;;;;;;14.50;9.57;;;4.50;99.90;;;;;;466029;255;27678;-81
2023/02/21 04:08:49;;;;;;;15.95;9.80;;;4.60;99.90;;;;;;466261;255;27585;-80
2023/02/21 04:10:50;;;;;;;19.30;11.52;;;4.60;99.90;;;;;;466158;255;27585;-80
2023/02/21 04:12:51;;;;;;;20.50;13.50;;;4.60;99.90;;;;;;466265;255;27589;-80
2023/02/21 04:14:55;;;;;;;19.85;13.30;;;4.50;99.90;;;;;;466222;255;27541;-82
2023/02/21 04:16:54;;;;;;;16.17;10.18;;;4.60;99.90;;;;;;466127;255;28045;-79
2023/02/21 04:18:56;;;;;;;15.32;10.57;;;4.60;99.90;;;;;;466215;255;27546;-80
2023/02/21 04:20:56;;;;;;;17.90;10.18;;;4.50;99.90;;;;;;466148;255;27558;-80
2023/02/21 04:22:57;;;;;;;19.70;11.68;;;4.50;99.90;;;;;;466125;255;27699;-79
2023/02/21 04:24:59;;;;;;;16.48;10.13;;;4.40;99.90;;;;;;466238;255;27609;-81
2023/02/21 04:27:01;;;;;;;19.52;11.95;;;4.20;99.90;;;;;;466202;255;27554;-81
2023/02/21 04:29:01;;;;;;;21.35;11.82;;;4.10;99.90;;;;;;466063;255;28805;-80
2023/02/21 04:31:02;;;;;;;15.38;9.38;;;4.00;99.90;;;;;;466236;255;27549;-80
2023/02/21 04:33:04;;;;;;;19.73;12.48;;;4.00;99.90;;;;;;466218;255;27687;-80
2023/02/21 04:35:05;;;;;;;15.82;9.70;;;4.00;99.90;;;;;;466151;255;27628;-80
2023/02/21 04:37:06;;;;;;;11.93;9.68;;;4.00;99.90;;;;;;466217;255;27586;-81
2023/02/21 04:39:07;;;;;;;15.68;10.88;;;4.00;99.90;;;;;;466093;255;27553;-81
2023/02/21 04:41:09;;;;;;;13.40;9.40;;;4.10;99.90;;;;;;466254;255;28065;-82
2023/02/21 04:43:10;;;;;;;13.98;10.25;;;4.10;99.90;;;;;;466298;254;28029;-83
2023/02/21 04:45:11;;;;;;;14.52;9.13;;;4.00;99.90;;;;;;466242;255;27637;-81
2023/02/21 04:47:12;;;;;;;12.43;9.30;;;4.10;99.90;;;;;;466191;255;27582;-78
2023/02/21 04:49:14;;;;;;;16.25;10.52;;;4.10;99.90;;;;;;466326;253;27637;-78
2023/02/21 04:51:15;;;;;;;19.40;10.85;;;4.00;99.90;;;;;;466285;255;27545;-77
2023/02/21 04:53:16;;;;;;;16.45;10.27;;;4.00;99.90;;;;;;466271;255;27720;-79
2023/02/21 04:55:18;;;;;;;13.20;8.68;;;4.00;99.90;;;;;;466290;255;27987;-78
2023/02/21 04:57:19;;;;;;;15.40;9.23;;;4.10;99.90;;;;;;466344;253;28048;-80
2023/02/21 04:59:20;;;;;;;13.88;10.30;;;4.10;99.90;;;;;;466297;255;27550;-76
2023/02/21 05:01:21;;;;;;;13.25;9.60;;;4.00;99.90;;;;;;466265;255;27637;-79
2023/02/21 05:03:23;;;;;;;20.52;10.55;;;4.00;99.90;;;;;;465604;255;27677;-79
2023/02/21 05:05:24;;;;;;;13.73;9.25;;;4.00;99.90;;;;;;466130;255;27549;-79
2023/02/21 05:07:25;;;;;;;13.85;10.05;;;4.00;99.90;;;;;;466016;255;27609;-81
2023/02/21 05:09:26;;;;;;;11.80;9.25;;;4.00;99.90;;;;;;465920;255;28169;-79
2023/02/21 05:11:28;;;;;;;18.42;12.45;;;4.00;99.90;;;;;;466198;255;28097;-81
2023/02/21 05:13:29;;;;;;;14.05;9.27;;;4.00;99.90;;;;;;466203;252;27719;-80
2023/02/21 05:15:30;;;;;;;14.77;8.75;;;4.00;99.90;;;;;;466264;253;27593;-80
2023/02/21 05:17:31;;;;;;;19.40;11.10;;;4.10;99.90;;;;;;466280;255;27585;-78
2023/02/21 05:19:33;;;;;;;22.10;13.93;;;4.10;99.90;;;;;;466295;255;27602;-78
2023/02/21 05:21:34;;;;;;;18.33;11.52;;;4.00;99.90;;;;;;466300;255;27539;-78
2023/02/21 05:23:35;;;;;;;13.75;9.70;;;4.00;99.90;;;;;;466068;255;28171;-78
2023/02/21 05:25:36;;;;;;;19.42;11.85;;;4.10;99.90;;;;;;466286;255;27989;-78
2023/02/21 05:27:38;;;;;;;15.20;10.73;;;4.10;99.90;;;;;;466253;255;27581;-78
2023/02/21 05:29:39;;;;;;;18.33;12.23;;;4.10;99.90;;;;;;466294;255;27581;-80
2023/02/21 05:31:40;;;;;;;15.68;11.50;;;4.10;99.90;;;;;;466322;255;27523;-78
2023/02/21 05:33:41;;;;;;;21.25;13.68;;;4.10;99.90;;;;;;466300;255;27589;-79
2023/02/21 05:35:45;;;;;;;18.05;12.52;;;4.20;99.90;;;;;;466286;255;27621;-79
2023/02/21 05:37:44;;;;;;;18.92;11.95;;;4.20;99.90;;;;;;466243;255;28034;-78
2023/02/21 05:39:45;;;;;;;17.23;11.40;;;4.10;99.90;;;;;;466240;255;27713;-78
2023/02/21 05:41:47;;;;;;;18.35;12.63;;;4.10;99.90;;;;;;466189;255;27545;-78
2023/02/21 05:43:48;;;;;;;15.52;11.12;;;4.10;99.90;;;;;;466162;255;27697;-79
2023/02/21 05:45:49;;;;;;;24.12;14.32;;;4.00;99.90;;;;;;466142;255;28090;-79
2023/02/21 05:47:50;;;;;;;17.75;12.70;;;4.00;99.90;;;;;;466141;255;27625;-78
2023/02/21 05:49:52;;;;;;;17.80;11.20;;;3.90;99.90;;;;;;466129;255;28149;-79
2023/02/21 05:51:53;;;;;;;21.67;13.43;;;3.90;99.90;;;;;;466229;255;28196;-78
2023/02/21 05:53:54;;;;;;;18.17;12.85;;;3.90;99.90;;;;;;466035;255;27620;-79
2023/02/21 05:55:55;;;;;;;17.27;11.90;;;3.80;99.90;;;;;;466211;255;27545;-77
2023/02/21 05:57:57;;;;;;;15.07;11.40;;;3.80;99.90;;;;;;466197;255;27576;-80
2023/02/21 05:59:58;;;;;;;24.33;13.10;;;3.80;99.90;;;;;;466287;253;27597;-80
2023/02/21 06:01:59;;;;;;;20.05;11.27;;;3.80;99.90;;;;;;466283;255;28063;-79
2023/02/21 06:04:00;;;;;;;27.77;16.62;;;3.80;99.90;;;;;;466335;255;28128;-77
2023/02/21 06:06:02;;;;;;;19.70;13.90;;;3.80;99.90;;;;;;466353;255;27542;-81
2023/02/21 06:08:03;;;;;;;20.33;14.50;;;3.80;99.90;;;;;;466222;253;27617;-79
2023/02/21 06:10:04;;;;;;;24.30;13.98;;;3.80;99.90;;;;;;466568;253;27986;-79
2023/02/21 06:12:05;;;;;;;25.62;15.57;;;3.80;99.90;;;;;;466211;253;27553;-78
2023/02/21 06:14:07;;;;;;;25.70;15.35;;;3.80;99.90;;;;;;466171;255;27610;-80
2023/02/21 06:16:08;;;;;;;20.70;13.27;;;3.80;99.90;;;;;;466211;255;28125;-81
2023/02/21 06:18:09;;;;;;;22.02;14.18;;;3.80;99.90;;;;;;466324;255;28099;-78
2023/02/21 06:20:10;;;;;;;24.85;15.18;;;3.80;99.90;;;;;;466290;255;27636;-79
2023/02/21 06:22:12;;;;;;;30.12;17.58;;;3.90;99.90;;;;;;466272;255;27577;-80
2023/02/21 06:24:13;;;;;;;21.90;14.55;;;3.90;99.90;;;;;;466235;255;27616;-81
2023/02/21 06:26:14;;;;;;;16.12;11.18;;;4.00;99.90;;;;;;466360;255;27639;-79
2023/02/21 06:28:16;;;;;;;21.05;13.45;;;3.90;99.90;;;;;;466369;255;27550;-81
2023/02/21 06:30:17;;;;;;;23.73;13.88;;;3.90;99.90;;;;;;466280;255;28013;-79
2023/02/21 06:32:18;;;;;;;22.10;13.38;;;3.90;99.90;;;;;;466284;255;27627;-78
2023/02/21 06:34:19;;;;;;;23.17;13.98;;;4.00;99.90;;;;;;466318;255;27605;-79
2023/02/21 06:36:20;;;;;;;25.23;13.30;;;4.00;99.90;;;;;;466214;255;27642;-81
2023/02/21 06:38:22;;;;;;;22.27;14.87;;;4.00;99.90;;;;;;466286;255;27585;-79
2023/02/21 06:40:23;;;;;;;20.88;13.62;;;4.00;99.90;;;;;;466269;255;27586;-81
2023/02/21 06:42:24;;;;;;;26.12;14.95;;;4.00;99.90;;;;;;466243;255;28109;-78
2023/02/21 06:44:26;;;;;;;20.37;14.02;;;4.00;99.90;;;;;;466250;255;28044;-78
2023/02/21 06:46:27;;;;;;;21.95;14.60;;;4.00;99.90;;;;;;466250;255;27513;-78
2023/02/21 06:48:28;;;;;;;19.67;13.55;;;4.00;99.90;;;;;;466399;253;27675;-77
2023/02/21 06:50:30;;;;;;;18.20;12.95;;;3.80;99.90;;;;;;466477;253;27665;-80
2023/02/21 06:52:31;;;;;;;20.33;14.70;;;3.70;99.90;;;;;;466279;255;27642;-77
2023/02/21 06:54:32;;;;;;;17.30;11.77;;;3.60;99.90;;;;;;466290;255;28033;-78
2023/02/21 06:56:33;;;;;;;22.80;13.93;;;3.50;99.90;;;;;;466224;255;27982;-78
2023/02/21 06:58:34;;;;;;;21.12;13.00;;;3.50;99.90;;;;;;466165;255;27618;-81
2023/02/21 07:00:36;;;;;;;18.23;12.90;;;3.40;99.90;;;;;;466183;255;27569;-78
2023/02/21 07:02:38;;;;;;;25.52;15.35;;;3.40;99.90;;;;;;466269;255;27530;-79
2023/02/21 07:04:38;;;;;;;28.20;16.20;;;3.30;99.90;;;;;;466269;255;27589;-77
2023/02/21 07:06:39;;;;;;;31.85;17.23;;;3.30;99.90;;;;;;466267;255;27701;-81
2023/02/21 07:08:41;;;;;;;33.15;17.10;;;3.40;99.90;;;;;;466238;255;28081;-79
2023/02/21 07:10:42;;;;;;;22.15;14.45;;;3.40;99.90;;;;;;466236;255;28884;-79
2023/02/21 07:12:43;;;;;;;21.00;14.13;;;3.50;99.90;;;;;;466278;255;27539;-78
2023/02/21 07:14:44;;;;;;;19.17;13.52;;;3.60;99.90;;;;;;466276;253;27612;-80
2023/02/21 07:16:46;;;;;;;19.23;12.95;;;3.70;99.90;;;;;;466278;254;27641;-79
2023/02/21 07:18:47;;;;;;;23.52;15.60;;;3.80;99.90;;;;;;466267;255;27585;-78
2023/02/21 07:20:48;;;;;;;19.37;12.55;;;3.90;99.90;;;;;;466194;255;27602;-78
2023/02/21 07:22:49;;;;;;;22.80;14.20;;;4.00;99.90;;;;;;466266;255;27680;-78
2023/02/21 07:24:51;;;;;;;19.85;14.73;;;4.00;99.90;;;;;;466198;255;28039;-78
2023/02/21 07:26:52;;;;;;;20.05;14.32;;;4.00;99.90;;;;;;466223;255;27626;-78
2023/02/21 07:28:53;;;;;;;22.62;14.87;;;4.10;99.90;;;;;;466230;251;27672;-78
2023/02/21 07:30:54;;;;;;;29.58;17.40;;;4.10;99.90;;;;;;466272;255;27682;-79
2023/02/21 07:32:56;;;;;;;17.52;12.75;;;4.20;99.90;;;;;;466254;255;27545;-79
2023/02/21 07:34:57;;;;;;;25.65;15.80;;;4.30;99.90;;;;;;466282;255;27700;-80
2023/02/21 07:36:58;;;;;;;22.60;15.63;;;4.40;99.90;;;;;;466189;255;28901;-81
2023/02/21 07:39:00;;;;;;;26.42;14.68;;;4.40;99.90;;;;;;466289;255;28195;-80
2023/02/21 07:41:01;;;;;;;24.50;14.95;;;4.50;99.90;;;;;;466176;255;27595;-82
2023/02/21 07:43:02;;;;;;;20.60;13.77;;;4.50;99.90;;;;;;466219;255;27541;-78
2023/02/21 07:45:03;;;;;;;21.15;13.38;;;4.50;99.90;;;;;;466089;255;27698;-82
2023/02/21 07:47:05;;;;;;;19.58;12.73;;;4.60;99.90;;;;;;466025;254;27557;-82
2023/02/21 07:49:07;;;;;;;21.65;14.98;;;4.70;99.90;;;;;;466209;255;27995;-80
2023/02/21 07:51:07;;;;;;;33.42;18.25;;;4.70;99.90;;;;;;466274;255;27574;-81
2023/02/21 07:53:08;;;;;;;25.17;14.30;;;4.70;99.90;;;;;;466271;255;27703;-79
2023/02/21 07:55:12;;;;;;;20.70;14.05;;;4.80;99.90;;;;;;466124;255;27593;-81
2023/02/21 07:57:11;;;;;;;24.08;15.20;;;4.90;99.90;;;;;;466223;255;27586;-82
2023/02/21 07:59:12;;;;;;;24.02;15.60;;;4.90;99.90;;;;;;466244;255;28025;-81
2023/02/21 08:01:13;;;;;;;21.23;14.85;;;4.90;99.90;;;;;;466310;253;28175;-77
2023/02/21 08:03:15;;;;;;;23.35;14.05;;;5.00;99.90;;;;;;466257;253;27646;-82
2023/02/21 08:05:16;;;;;;;19.77;13.32;;;5.00;99.90;;;;;;466162;255;27619;-79
2023/02/21 08:07:17;;;;;;;30.60;16.67;;;5.10;99.90;;;;;;466295;255;27922;-79
2023/02/21 08:09:18;;;;;;;27.42;17.25;;;5.20;99.90;;;;;;466258;255;27565;-79
2023/02/21 08:11:20;;;;;;;24.48;14.23;;;5.30;99.90;;;;;;466309;255;28060;-79
2023/02/21 08:13:21;;;;;;;26.65;16.40;;;5.40;99.90;;;;;;466276;255;28102;-82
2023/02/21 08:15:22;;;;;;;21.05;14.38;;;5.40;99.90;;;;;;466265;255;27585;-79
2023/02/21 08:17:23;;;;;;;35.50;20.60;;;5.40;99.90;;;;;;466311;255;27586;-79
2023/02/21 08:19:25;;;;;;;24.33;15.13;;;5.50;99.90;;;;;;466375;253;27958;-78
2023/02/21 08:21:26;;;;;;;31.00;17.48;;;5.50;99.90;;;;;;466246;255;28052;-79
2023/02/21 08:23:27;;;;;;;27.02;16.58;;;5.60;99.90;;;;;;466187;255;28000;-80
2023/02/21 08:25:29;;;;;;;23.75;16.12;;;5.60;99.90;;;;;;466304;255;27557;-80
2023/02/21 08:27:30;;;;;;;28.92;17.70;;;5.60;99.90;;;;;;466305;255;27620;-78
2023/02/21 08:29:31;;;;;;;21.02;13.55;;;5.60;99.90;;;;;;466235;255;27574;-78
2023/02/21 08:31:32;;;;;;;30.75;16.62;;;5.70;99.90;;;;;;466217;255;28093;-81
2023/02/21 08:33:34;;;;;;;29.83;16.12;;;5.70;99.90;;;;;;466248;255;28902;-81
2023/02/21 08:35:35;;;;;;;25.67;16.02;;;5.70;99.90;;;;;;466254;255;27546;-81
2023/02/21 08:37:44;;;;;;;27.83;15.93;;;5.70;99.90;;;;;;466278;255;27592;-77
2023/02/21 08:39:37;;;;;;;33.50;18.17;;;5.80;99.90;;;;;;466210;255;27558;-82
2023/02/21 08:41:39;;;;;;;22.60;14.00;;;5.80;99.90;;;;;;466200;255;28112;-78
2023/02/21 08:43:40;;;;;;;21.50;14.98;;;5.80;99.90;;;;;;466262;254;27593;-78
2023/02/21 08:45:41;;;;;;;28.27;17.00;;;5.90;99.90;;;;;;466279;255;27552;-81
2023/02/21 08:47:42;;;;;;;27.00;15.02;;;5.90;99.90;;;;;;466301;255;27672;-79
2023/02/21 08:49:46;;;;;;;32.83;18.00;;;5.90;99.90;;;;;;466180;255;27633;-81
2023/02/21 08:51:46;;;;;;;25.02;16.15;;;6.00;99.90;;;;;;466375;253;28088;-78
2023/02/21 08:53:46;;;;;;;27.48;16.73;;;6.00;99.90;;;;;;466079;255;27599;-81
2023/02/21 08:55:48;;;;;;;22.90;15.00;;;6.00;99.90;;;;;;466362;254;27538;-81
2023/02/21 08:57:49;;;;;;;22.90;16.33;;;6.10;99.90;;;;;;466261;254;27582;-80
2023/02/21 08:59:50;;;;;;;28.37;17.57;;;6.10;99.90;;;;;;466263;253;28042;-80
2023/02/21 09:01:51;;;;;;;25.40;16.83;;;6.10;99.90;;;;;;466282;255;29400;-79
2023/02/21 09:03:53;;;;;;;27.35;16.25;;;6.20;99.90;;;;;;466176;255;29054;-79
2023/02/21 09:05:54;;;;;;;26.42;17.15;;;6.30;99.90;;;;;;466211;255;27534;-79
2023/02/21 09:07:57;;;;;;;27.87;15.88;;;6.30;99.90;;;;;;466238;255;27577;-81
2023/02/21 09:09:56;;;;;;;27.80;16.27;;;6.30;99.90;;;;;;466191;255;27534;-81
2023/02/21 09:11:58;;;;;;;25.30;14.83;;;6.40;99.90;;;;;;466304;253;29440;-79
2023/02/21 09:13:59;;;;;;;27.73;14.77;;;6.40;99.90;;;;;;466207;255;30291;-80
2023/02/21 09:16:00;;;;;;;29.63;16.30;;;6.50;99.90;;;;;;466194;255;27501;-81
2023/02/21 09:18:01;;;;;;;24.90;14.07;;;6.60;99.90;;;;;;466233;255;28983;-81
2023/02/21 09:20:03;;;;;;;27.52;14.93;;;6.60;99.90;;;;;;466222;255;27541;-81
2023/02/21 09:22:04;;;;;;;26.70;14.80;;;6.60;99.90;;;;;;466178;255;27574;-82
2023/02/21 09:24:05;;;;;;;29.13;17.00;;;6.70;99.90;;;;;;466236;255;28410;-82
2023/02/21 09:26:06;;;;;;;21.80;13.87;;;6.80;99.90;;;;;;466268;255;28558;-81
2023/02/21 09:28:08;;;;;;;23.80;14.57;;;6.90;99.90;;;;;;464531;255;47768;-82
2023/02/21 09:30:09;;;;;;;23.80;14.73;;;6.90;99.90;;;;;;466238;255;27546;-81
2023/02/21 09:32:10;;;;;;;20.63;13.80;;;7.00;99.90;;;;;;466229;255;28041;-82
2023/02/21 09:34:11;;;;;;;29.30;15.47;;;7.00;99.90;;;;;;466244;253;28788;-81
2023/02/21 09:36:13;;;;;;;26.77;16.20;;;7.00;99.90;;;;;;466290;255;28841;-82
2023/02/21 09:38:14;;;;;;;33.73;23.80;;;7.10;99.90;;;;;;466271;255;28069;-81
2023/02/21 09:40:15;;;;;;;35.50;26.43;;;7.10;99.90;;;;;;466236;255;28050;-80
2023/02/21 09:42:16;;;;;;;28.27;18.87;;;7.30;99.90;;;;;;466243;255;28414;-81
2023/02/21 09:44:18;;;;;;;25.13;16.70;;;7.40;99.90;;;;;;466145;255;28292;-81
2023/02/21 09:46:19;;;;;;;23.57;14.40;;;7.40;99.90;;;;;;466211;255;28154;-82
2023/02/21 09:48:20;;;;;;;22.73;14.53;;;7.50;99.90;;;;;;466065;255;27869;-81
2023/02/21 09:50:21;;;;;;;23.10;14.33;;;7.60;99.90;;;;;;466528;253;27540;-80
2023/02/21 09:52:23;;;;;;;24.00;14.97;;;7.70;99.90;;;;;;466209;255;28081;-81
2023/02/21 09:54:24;;;;;;;23.90;13.40;;;7.70;99.90;;;;;;466276;255;27965;-81
2023/02/21 09:56:27;;;;;;;19.17;12.00;;;7.80;99.90;;;;;;466233;255;28027;-81
2023/02/21 09:58:27;;;;;;;32.70;14.37;;;7.80;99.90;;;;;;466041;255;28175;-81
2023/02/21 10:00:28;;;;;;;20.00;11.60;;;7.90;99.90;;;;;;466084;252;29143;-82
2023/02/21 10:02:29;;;;;;;19.10;12.10;;;7.90;99.90;;;;;;466115;255;28375;-81
2023/02/21 10:04:31;;;;;;;19.83;11.77;;;8.00;99.90;;;;;;466122;255;28087;-82
2023/02/21 10:06:32;;;;;;;16.23;10.90;;;8.00;99.90;;;;;;466202;255;27814;-81
2023/02/21 10:08:36;;;;;;;18.40;12.47;;;8.10;99.90;;;;;;466235;255;28111;-80
2023/02/21 10:10:34;;;;;;;15.30;10.30;;;8.10;99.90;;;;;;466238;255;28078;-81
2023/02/21 10:12:35;;;;;;;14.53;9.73;;;8.20;99.90;;;;;;466180;255;28020;-82
2023/02/21 10:14:37;;;;;;;15.80;10.00;;;8.30;99.90;;;;;;466416;253;27845;-81
2023/02/21 10:16:38;;;;;;;17.67;10.27;;;8.30;99.90;;;;;;466233;255;27960;-81
2023/02/21 10:18:39;;;;;;;25.40;13.90;;;8.30;99.90;;;;;;466199;255;28412;-81
2023/02/21 10:20:40;;;;;;;22.70;12.13;;;8.40;99.90;;;;;;466193;255;28533;-81
2023/02/21 10:22:42;;;;;;;17.43;11.17;;;8.40;99.90;;;;;;466334;253;28186;-81
2023/02/21 10:24:43;;;;;;;19.33;11.43;;;8.40;99.90;;;;;;466243;255;27988;-81
2023/02/21 10:26:44;;;;;;;16.03;10.47;;;8.50;99.90;;;;;;466210;255;27911;-80
2023/02/21 10:28:45;;;;;;;16.47;10.37;;;8.60;99.90;;;;;;466192;255;28193;-81
2023/02/21 10:30:47;;;;;;;14.73;9.80;;;8.60;99.90;;;;;;466238;255;27801;-81
2023/02/21 10:32:48;;;;;;;19.03;12.17;;;8.60;99.90;;;;;;466233;255;28132;-81
2023/02/21 10:34:49;;;;;;;19.37;11.37;;;8.70;99.90;;;;;;466249;255;28165;-81
2023/02/21 10:36:51;;;;;;;19.00;11.40;;;8.80;99.90;;;;;;466194;255;28705;-82
2023/02/21 10:38:53;;;;;;;23.40;11.93;;;8.80;99.90;;;;;;466436;253;28113;-82
2023/02/21 10:40:54;;;;;;;15.70;10.03;;;8.90;99.90;;;;;;466156;255;28628;-81
2023/02/21 10:42:55;;;;;;;18.43;11.20;;;9.00;99.90;;;;;;466175;255;28538;-81
2023/02/21 10:44:56;;;;;;;24.33;10.80;;;9.00;99.90;;;;;;466151;255;28470;-81
2023/02/21 10:46:58;;;;;;;16.90;11.17;;;9.10;99.90;;;;;;466212;255;28027;-81
2023/02/21 10:48:59;;;;;;;19.03;9.67;;;9.10;99.90;;;;;;466184;255;28165;-81
2023/02/21 10:51:00;;;;;;;17.93;8.60;;;9.20;99.90;;;;;;466150;255;28072;-80
2023/02/21 10:53:01;;;;;;;13.23;9.40;;;9.30;99.90;;;;;;466175;255;28167;-81
2023/02/21 10:55:03;;;;;;;14.83;9.13;;;9.50;99.90;;;;;;466154;255;28111;-82
2023/02/21 10:57:04;;;;;;;12.70;7.77;;;9.50;99.90;;;;;;466136;255;28150;-82
2023/02/21 10:59:05;;;;;;;16.30;9.20;;;9.50;99.90;;;;;;466190;255;28584;-81
2023/02/21 11:01:06;;;;;;;9.67;7.60;;;9.60;99.90;;;;;;466177;255;28430;-81
2023/02/21 11:03:08;;;;;;;18.63;10.50;;;9.60;99.90;;;;;;466185;255;28435;-82
2023/02/21 11:05:09;;;;;;;15.00;8.37;;;9.70;99.90;;;;;;466372;251;28246;-81
2023/02/21 11:07:10;;;;;;;12.00;7.90;;;9.80;99.90;;;;;;466190;255;28199;-81
2023/02/21 11:09:11;;;;;;;12.20;7.83;;;9.80;99.90;;;;;;466246;253;28234;-81
2023/02/21 11:11:13;;;;;;;12.70;8.10;;;9.90;99.90;;;;;;466221;253;27965;-81
2023/02/21 11:13:14;;;;;;;12.20;7.20;;;10.00;99.90;;;;;;466145;255;28082;-81
2023/02/21 11:15:16;;;;;;;11.00;6.80;;;10.00;99.90;;;;;;466175;255;28138;-81
2023/02/21 11:17:16;;;;;;;17.40;8.27;;;10.10;99.90;;;;;;466209;253;28202;-80
2023/02/21 11:19:18;;;;;;;9.53;6.60;;;10.20;99.90;;;;;;466184;255;28095;-81
2023/02/21 11:21:19;;;;;;;12.50;7.53;;;10.40;99.90;;;;;;466195;255;28387;-81
2023/02/21 11:23:20;;;;;;;11.37;7.47;;;10.30;99.90;;;;;;466229;253;28545;-81
2023/02/21 11:25:21;;;;;;;13.60;8.17;;;10.40;99.90;;;;;;466164;255;27905;-81
2023/02/21 11:27:23;;;;;;;13.03;8.00;;;10.40;99.90;;;;;;466154;255;27991;-80
2023/02/21 11:29:25;;;;;;;13.83;6.63;;;10.50;99.90;;;;;;466196;255;28203;-81
2023/02/21 11:31:25;;;;;;;10.03;5.70;;;10.50;99.90;;;;;;466106;255;28035;-81
2023/02/21 11:33:26;;;;;;;8.00;4.67;;;10.60;99.90;;;;;;466198;254;28085;-81
2023/02/21 11:35:28;;;;;;;7.93;5.83;;;10.60;99.90;;;;;;466225;255;28022;-81
2023/02/21 11:37:31;;;;;;;7.80;5.73;;;10.60;99.90;;;;;;466208;255;28074;-81
2023/02/21 11:39:30;;;;;;;7.30;4.90;;;10.60;99.90;;;;;;466216;255;27977;-81
2023/02/21 11:41:31;;;;;;;7.93;5.40;;;10.60;99.90;;;;;;466211;255;28502;-81
2023/02/21 11:43:33;;;;;;;8.77;4.70;;;10.60;99.90;;;;;;466233;255;28325;-80
2023/02/21 11:45:34;;;;;;;7.20;5.03;;;10.70;99.90;;;;;;466404;253;28551;-81
2023/02/21 11:47:35;;;;;;;5.90;3.87;;;10.70;99.90;;;;;;466175;255;28670;-81
2023/02/21 11:49:36;;;;;;;4.57;3.67;;;10.80;99.90;;;;;;466172;255;27826;-81
2023/02/21 11:51:38;;;;;;;5.33;3.30;;;10.80;99.90;;;;;;466182;255;28143;-81
2023/02/21 11:53:39;;;;;;;5.80;3.80;;;10.90;99.90;;;;;;466173;255;27806;-81
2023/02/21 11:55:40;;;;;;;5.83;3.87;;;11.00;99.90;;;;;;466114;255;27784;-81
2023/02/21 11:57:41;;;;;;;7.03;3.47;;;11.00;99.90;;;;;;466077;255;28074;-81
2023/02/21 11:59:43;;;;;;;5.13;3.47;;;11.00;99.90;;;;;;466178;253;28072;-81
2023/02/21 12:01:45;;;;;;;3.70;3.07;;;11.20;99.90;;;;;;466142;255;27907;-81
2023/02/21 12:03:45;;;;;;;4.47;3.30;;;11.20;99.90;;;;;;466120;255;28216;-81
2023/02/21 12:05:46;;;;;;;4.67;3.07;;;11.20;99.90;;;;;;465931;255;28161;-82
2023/02/21 12:07:48;;;;;;;4.73;3.30;;;11.30;99.90;;;;;;466216;255;28552;-81
2023/02/21 12:09:49;;;;;;;3.27;2.70;;;11.40;99.90;;;;;;466184;255;28733;-81
2023/02/21 12:11:50;;;;;;;3.07;2.13;;;11.40;99.90;;;;;;466212;255;28573;-81
2023/02/21 12:13:52;;;;;;;2.77;2.53;;;11.40;99.90;;;;;;466184;255;28157;-81
2023/02/21 12:15:53;;;;;;;3.83;2.67;;;11.60;99.90;;;;;;466220;253;28020;-81
2023/02/21 12:17:57;;;;;;;3.17;2.40;;;11.60;99.90;;;;;;466166;255;28099;-80
2023/02/21 12:19:55;;;;;;;3.33;2.23;;;11.50;99.90;;;;;;466193;255;28188;-81
2023/02/21 12:21:57;;;;;;;3.50;2.20;;;11.50;99.90;;;;;;466199;255;28040;-81
2023/02/21 12:23:58;;;;;;;5.33;2.37;;;11.60;99.90;;;;;;466197;255;28235;-81
2023/02/21 12:25:59;;;;;;;3.70;2.00;;;11.70;99.90;;;;;;466202;255;28046;-81
2023/02/21 12:28:00;;;;;;;2.30;2.10;;;11.60;99.90;;;;;;466185;255;28179;-80
2023/02/21 12:30:02;;;;;;;1.63;1.50;;;11.60;99.90;;;;;;466175;255;28074;-80
2023/02/21 12:32:03;;;;;;;1.83;1.73;;;11.70;99.90;;;;;;466177;255;28715;-81
2023/02/21 12:34:04;;;;;;;1.80;1.70;;;11.70;99.90;;;;;;466181;255;28780;-80
2023/02/21 12:36:11;;;;;;;3.00;1.70;;;11.80;99.20;;;;;;466183;255;28864;-81
2023/02/21 12:38:07;;;;;;;1.60;1.50;;;11.70;94.70;;;;;;466181;255;28288;-81
2023/02/21 12:40:08;;;;;;;1.77;1.67;;;11.70;97.10;;;;;;466190;255;28315;-80
2023/02/21 12:42:09;;;;;;;3.23;1.73;;;11.80;98.40;;;;;;466097;255;28422;-80